Terminal Aerodrome Forecast
Issued by NWS Tuscon, AZ

Home | Current Version | Previous Version | Text Only | Print | Product List | Glossary On
Versions: 1 2 3 4 5 6 7 8 9 10 11 12 13
000
FTUS45 KTWC 281100
TAFDUG
TAF
KDUG 281136Z 2812/0112 16011KT P6SM SCT250
     FM281600 19018G28KT P6SM SCT040 SCT130 BKN250
     FM282000 23023G35KT P6SM SCT040 BKN120
     FM010300 20014G20KT P6SM SCT040 BKN090
     FM010600 18009KT P6SM SCT040 BKN090=

USA.gov is the U.S. government's official web portal to all federal, state and local government web resources and services.